Time;durP1;ratioP1;P1;durP2;ratioP2;P2;SDS_P1;SDS_P2;PMS_P1;PMS_P2;Temp;Humidity;BMP_temperature;BMP_pressure;BME280_temperature;BME280_humidity;BME280_pressure;Samples;Min_cycle;Max_cycle;Signal;HPM_P1;HPM_P2
2024/02/06 00:01:50;;;;;;;6.90;2.50;;;;;;;8.59;100.00;99587.20;219902;1264;140116;-85
2024/02/06 00:06:51;;;;;;;9.50;2.60;;;;;;;8.59;100.00;99584.61;220576;1263;138783;-89
2024/02/06 00:11:51;;;;;;;8.00;3.00;;;;;;;8.59;100.00;99591.75;220121;1263;139959;-86
2024/02/06 00:16:52;;;;;;;12.30;3.50;;;;;;;8.60;100.00;99583.37;221614;1265;97800;-89
2024/02/06 00:21:52;;;;;;;10.90;3.60;;;;;;;8.62;100.00;99587.45;220138;1264;139914;-88
2024/02/06 00:26:53;;;;;;;9.80;4.00;;;;;;;8.63;100.00;99585.73;220245;1264;138988;-87
2024/02/06 00:31:53;;;;;;;11.40;5.40;;;;;;;8.64;100.00;99583.63;219581;1265;140140;-87
2024/02/06 00:36:53;;;;;;;12.90;4.20;;;;;;;8.65;100.00;99587.77;220047;1265;138902;-84
2024/02/06 00:41:54;;;;;;;13.00;4.40;;;;;;;8.66;100.00;99577.98;219232;1264;140719;-91
2024/02/06 00:46:54;;;;;;;10.40;3.40;;;;;;;8.66;100.00;99577.91;220692;1264;97949;-90
2024/02/06 00:51:55;;;;;;;13.50;4.40;;;;;;;8.65;100.00;99574.22;220120;1265;140013;-89
2024/02/06 00:56:55;;;;;;;12.30;4.60;;;;;;;8.67;100.00;99569.06;220614;1264;138670;-89
2024/02/06 01:01:59;;;;;;;16.00;5.40;;;;;;;8.68;100.00;99567.42;220084;1263;140618;-90
2024/02/06 01:06:59;;;;;;;18.20;7.20;;;;;;;8.66;100.00;99567.64;220467;1267;139027;-90
2024/02/06 01:12:00;;;;;;;13.50;6.20;;;;;;;8.62;100.00;99571.08;220033;1263;139870;-87
2024/02/06 01:17:01;;;;;;;17.60;7.40;;;;;;;8.57;100.00;99567.98;222137;1267;97908;-89
2024/02/06 01:22:01;;;;;;;20.50;7.00;;;;;;;8.51;100.00;99570.86;219456;1264;139786;-90
2024/02/06 01:27:02;;;;;;;19.00;7.50;;;;;;;8.47;100.00;99560.58;219957;1267;138563;-89
2024/02/06 01:32:03;;;;;;;18.80;8.50;;;;;;;8.43;100.00;99562.90;219509;1264;139735;-89
2024/02/06 01:37:03;;;;;;;22.50;8.40;;;;;;;8.37;100.00;99564.29;220000;1264;138649;-91
2024/02/06 01:42:04;;;;;;;21.20;8.70;;;;;;;8.31;100.00;99558.60;219413;1264;139992;-92
2024/02/06 01:47:08;;;;;;;21.60;9.80;;;;;;;8.27;100.00;99561.02;219989;1264;111665;-89
2024/02/06 01:52:11;;;;;;;20.00;9.70;;;;;;;8.23;100.00;99557.61;219623;1264;140726;-94
2024/02/06 01:57:12;;;;;;;23.10;9.70;;;;;;;8.17;100.00;99553.38;220430;1265;139026;-91
2024/02/06 02:02:13;;;;;;;21.00;9.50;;;;;;;8.12;100.00;99553.52;219924;1264;141719;-90
2024/02/06 02:07:13;;;;;;;28.70;11.10;;;;;;;8.08;100.00;99546.36;220268;1264;138777;-91
2024/02/06 02:12:14;;;;;;;25.20;10.30;;;;;;;8.06;100.00;99537.19;219898;1264;140881;-92
2024/02/06 02:17:14;;;;;;;21.00;9.30;;;;;;;8.04;100.00;99527.39;222048;1267;138825;-89
2024/02/06 02:22:15;;;;;;;25.20;9.50;;;;;;;8.00;100.00;99521.81;220354;1264;139989;-90
2024/02/06 02:27:16;;;;;;;21.40;9.40;;;;;;;7.99;100.00;99525.71;220094;1264;139598;-91
2024/02/06 02:32:17;;;;;;;24.10;10.60;;;;;;;7.97;100.00;99521.31;219333;1265;140284;-93
2024/02/06 02:37:18;;;;;;;21.50;9.30;;;;;;;7.94;100.00;99522.23;219862;1266;138925;-90
2024/02/06 02:42:19;;;;;;;19.20;8.60;;;;;;;7.92;100.00;99520.34;219471;1264;140893;-88
2024/02/06 02:47:19;;;;;;;21.60;8.40;;;;;;;7.90;100.00;99518.98;219871;1267;138822;-90
2024/02/06 02:52:19;;;;;;;18.70;8.10;;;;;;;7.88;100.00;99510.77;219571;1267;140177;-88
2024/02/06 02:57:20;;;;;;;15.50;7.70;;;;;;;7.87;100.00;99511.54;219849;1264;138491;-89
2024/02/06 03:02:21;;;;;;;15.10;7.70;;;;;;;7.86;100.00;99499.23;219304;1264;139960;-90
2024/02/06 03:07:21;;;;;;;20.00;7.40;;;;;;;7.85;100.00;99491.88;219949;1267;138788;-91
2024/02/06 03:12:21;;;;;;;14.60;6.20;;;;;;;7.84;100.00;99489.98;219377;1267;139620;-91
2024/02/06 03:17:22;;;;;;;15.00;6.50;;;;;;;7.84;100.00;99495.86;220865;1264;137551;-89
2024/02/06 03:22:26;;;;;;;13.20;5.60;;;;;;;7.84;100.00;99484.05;220570;1263;140336;-90
2024/02/06 03:27:27;;;;;;;17.00;5.90;;;;;;;7.86;100.00;99484.84;220122;1263;138819;-90
2024/02/06 03:32:27;;;;;;;15.30;5.80;;;;;;;7.86;100.00;99481.24;219340;1264;140909;-88
2024/02/06 03:37:28;;;;;;;11.60;4.80;;;;;;;7.87;100.00;99479.52;219767;1263;139207;-89
2024/02/06 03:42:28;;;;;;;14.40;5.30;;;;;;;7.87;100.00;99478.05;219403;1265;140010;-90
2024/02/06 03:47:29;;;;;;;16.70;4.90;;;;;;;7.87;100.00;99476.48;219936;1264;140059;-89
2024/02/06 03:52:29;;;;;;;14.50;6.10;;;;;;;7.87;100.00;99477.10;219516;1263;140497;-87
2024/02/06 03:57:30;;;;;;;19.00;6.00;;;;;;;7.87;100.00;99476.48;219848;1264;138600;-88
2024/02/06 04:02:30;;;;;;;16.90;6.30;;;;;;;7.86;100.00;99475.14;219478;1265;139923;-90
2024/02/06 04:07:30;;;;;;;12.80;6.00;;;;;;;7.87;100.00;99475.84;220091;1264;139391;-89
2024/02/06 04:12:32;;;;;;;13.70;6.60;;;;;;;7.87;100.00;99483.20;219274;1266;140150;-89
2024/02/06 04:17:32;;;;;;;15.10;6.70;;;;;;;7.87;100.00;99483.59;219963;1267;138790;-89
2024/02/06 04:22:32;;;;;;;15.60;5.80;;;;;;;7.86;100.00;99488.52;220742;1265;139527;-89
2024/02/06 04:27:34;;;;;;;14.50;6.00;;;;;;;7.87;100.00;99485.71;219747;1267;138973;-89
2024/02/06 04:32:35;;;;;;;13.50;5.50;;;;;;;7.88;100.00;99483.21;219275;1266;140101;-91
2024/02/06 04:37:35;;;;;;;13.00;5.40;;;;;;;7.89;100.00;99476.34;219978;1263;139126;-89
2024/02/06 04:42:36;;;;;;;17.30;5.50;;;;;;;7.89;100.00;99475.77;219216;1264;139578;-88
2024/02/06 04:47:36;;;;;;;16.70;5.70;;;;;;;7.89;100.00;99467.64;219689;1265;138757;-88
2024/02/06 04:52:37;;;;;;;14.70;5.30;;;;;;;7.88;100.00;99461.92;219613;1264;139933;-88
2024/02/06 04:57:38;;;;;;;13.90;5.30;;;;;;;7.89;100.00;99461.61;219911;1267;138490;-90
2024/02/06 05:02:39;;;;;;;11.90;5.00;;;;;;;7.88;100.00;99454.34;219455;1267;139765;-92
2024/02/06 05:07:40;;;;;;;14.50;4.90;;;;;;;7.88;100.00;99448.15;219992;1268;139615;-92
2024/02/06 05:12:42;;;;;;;12.90;5.40;;;;;;;7.88;100.00;99446.19;219360;1265;139971;-88
2024/02/06 05:17:43;;;;;;;8.60;4.40;;;;;;;7.90;100.00;99443.54;219972;1264;138799;-91
2024/02/06 05:22:44;;;;;;;11.60;4.80;;;;;;;7.90;100.00;99444.56;221251;1267;139199;-88
2024/02/06 05:27:44;;;;;;;15.90;6.20;;;;;;;7.90;100.00;99446.45;220064;1264;138659;-88
2024/02/06 05:32:45;;;;;;;10.00;4.30;;;;;;;7.92;100.00;99443.79;219352;1264;139996;-91
2024/02/06 05:37:45;;;;;;;15.70;4.90;;;;;;;7.92;100.00;99443.55;219960;1264;138725;-90
2024/02/06 05:42:47;;;;;;;13.70;4.70;;;;;;;7.91;100.00;99443.46;219496;1266;139654;-88
2024/02/06 05:47:47;;;;;;;15.30;7.10;;;;;;;7.91;100.00;99439.79;220059;1267;138840;-85
2024/02/06 05:52:47;;;;;;;14.20;5.30;;;;;;;7.90;100.00;99431.56;219847;1267;139757;-89
2024/02/06 05:57:49;;;;;;;11.10;5.60;;;;;;;7.90;100.00;99436.11;220690;1266;139794;-86
2024/02/06 06:02:49;;;;;;;11.20;5.10;;;;;;;7.88;100.00;99435.95;220050;1266;141014;-88
2024/02/06 06:07:50;;;;;;;14.10;5.40;;;;;;;7.86;100.00;99442.82;220177;1268;139413;-88
2024/02/06 06:12:50;;;;;;;11.70;5.50;;;;;;;7.84;100.00;99443.73;219969;1268;140544;-87
2024/02/06 06:17:51;;;;;;;13.30;6.60;;;;;;;7.81;100.00;99441.36;220542;1266;138541;-90
2024/02/06 06:22:52;;;;;;;15.90;6.30;;;;;;;7.78;100.00;99442.15;220429;1267;140095;-90
2024/02/06 06:27:53;;;;;;;14.20;6.10;;;;;;;7.74;100.00;99441.25;221272;1264;137511;-90
2024/02/06 06:32:53;;;;;;;17.60;6.60;;;;;;;7.70;100.00;99446.00;219656;1265;140045;-89
2024/02/06 06:37:53;;;;;;;13.20;6.30;;;;;;;7.66;100.00;99449.11;220046;1268;138654;-93
2024/02/06 06:42:54;;;;;;;13.30;5.40;;;;;;;7.61;100.00;99443.52;219377;1268;140559;-86
2024/02/06 06:47:54;;;;;;;20.90;7.60;;;;;;;7.59;100.00;99444.21;219527;1264;138811;-88
2024/02/06 06:52:55;;;;;;;19.40;8.20;;;;;;;7.58;100.00;99445.60;219768;1264;139811;-91
2024/02/06 06:57:55;;;;;;;18.50;9.00;;;;;;;7.54;100.00;99444.41;220444;1265;138529;-90
2024/02/06 07:02:57;;;;;;;21.80;11.10;;;;;;;7.52;100.00;99443.69;220225;1267;140262;-91
2024/02/06 07:07:58;;;;;;;15.50;8.40;;;;;;;7.49;100.00;99440.91;220593;1264;139265;-88
2024/02/06 07:12:58;;;;;;;16.00;8.10;;;;;;;7.46;100.00;99440.27;220296;1266;139924;-91
2024/02/06 07:17:59;;;;;;;16.10;7.40;;;;;;;7.43;100.00;99439.86;220792;1267;138696;-88
2024/02/06 07:23:00;;;;;;;18.30;6.60;;;;;;;7.42;100.00;99446.81;220465;1268;140288;-86
2024/02/06 07:28:03;;;;;;;24.10;10.80;;;;;;;7.40;100.00;99440.15;221835;1265;139388;-90
2024/02/06 07:33:04;;;;;;;16.90;7.60;;;;;;;7.39;100.00;99443.12;219861;1267;139977;-90
2024/02/06 07:38:05;;;;;;;18.10;7.60;;;;;;;7.39;100.00;99444.20;220130;1266;138926;-86
2024/02/06 07:43:06;;;;;;;16.30;7.00;;;;;;;7.39;100.00;99441.32;219718;1264;140345;-87
2024/02/06 07:48:07;;;;;;;23.70;8.80;;;;;;;7.40;100.00;99439.99;220308;1263;138648;-85
2024/02/06 07:53:08;;;;;;;17.80;7.80;;;;;;;7.40;100.00;99431.15;219792;1264;139639;-87
2024/02/06 07:58:08;;;;;;;18.10;6.50;;;;;;;7.40;100.00;99439.13;220070;1266;138473;-87
2024/02/06 08:03:11;;;;;;;14.40;6.50;;;;;;;7.40;100.00;99437.73;219383;1266;139823;-88
2024/02/06 08:08:11;;;;;;;14.70;6.80;;;;;;;7.42;100.00;99442.60;220772;1267;138594;-87
2024/02/06 08:13:12;;;;;;;18.90;6.70;;;;;;;7.42;100.00;99439.63;219566;1266;139978;-86
2024/02/06 08:18:12;;;;;;;16.00;6.10;;;;;;;7.43;100.00;99434.84;220309;1266;138657;-85
2024/02/06 08:23:13;;;;;;;12.60;6.20;;;;;;;7.44;100.00;99432.98;219551;1269;139878;-88
2024/02/06 08:28:13;;;;;;;16.00;6.70;;;;;;;7.45;100.00;99427.67;222266;1265;138750;-87
2024/02/06 08:33:14;;;;;;;16.20;6.70;;;;;;;7.46;100.00;99428.54;220169;1267;139759;-87
2024/02/06 08:38:15;;;;;;;20.40;6.50;;;;;;;7.48;100.00;99433.40;220712;1263;139212;-88
2024/02/06 08:43:16;;;;;;;16.30;7.90;;;;;;;7.49;100.00;99428.49;219917;1264;140147;-86
2024/02/06 08:48:16;;;;;;;21.20;9.80;;;;;;;7.53;100.00;99422.88;220368;1267;138912;-89
2024/02/06 08:53:17;;;;;;;15.50;6.60;;;;;;;7.55;100.00;99426.89;219575;1267;140062;-88
2024/02/06 08:58:17;;;;;;;16.30;7.00;;;;;;;7.58;100.00;99422.14;220437;1266;98046;-90
2024/02/06 09:03:18;;;;;;;17.70;6.30;;;;;;;7.61;100.00;99416.75;220690;1265;140072;-91
2024/02/06 09:08:18;;;;;;;14.60;6.60;;;;;;;7.65;100.00;99420.54;220895;1267;139171;-91
2024/02/06 09:13:21;;;;;;;15.50;6.40;;;;;;;7.68;100.00;99419.15;220577;1265;139661;-89
2024/02/06 09:18:21;;;;;;;17.70;6.40;;;;;;;7.71;100.00;99408.91;220587;1267;139262;-90
2024/02/06 09:23:22;;;;;;;13.90;6.10;;;;;;;7.74;100.00;99407.29;220309;1268;139734;-93
2024/02/06 09:28:22;;;;;;;14.30;5.80;;;;;;;7.78;100.00;99405.52;221994;1267;97920;-89
2024/02/06 09:33:23;;;;;;;19.50;7.20;;;;;;;7.83;100.00;99403.04;220659;1266;139415;-90
2024/02/06 09:38:23;;;;;;;12.60;6.50;;;;;;;7.88;100.00;99404.41;219847;1267;139351;-92
2024/02/06 09:43:24;;;;;;;13.50;5.60;;;;;;;7.92;100.00;99406.23;219418;1268;140000;-90
2024/02/06 09:48:25;;;;;;;16.00;5.40;;;;;;;7.97;100.00;99406.63;219873;1264;138931;-89
2024/02/06 09:53:30;;;;;;;12.00;4.70;;;;;;;8.01;100.00;99408.47;219429;1267;139593;-90
2024/02/06 09:58:30;;;;;;;10.30;4.20;;;;;;;8.07;100.00;99405.52;220049;1266;97859;-94
2024/02/06 10:03:34;;;;;;;13.80;4.50;;;;;;;8.13;100.00;99403.73;219408;1266;140996;-90
2024/02/06 10:08:36;;;;;;;9.40;4.10;;;;;;;8.18;100.00;99400.01;219931;1267;139521;-93
2024/02/06 10:13:38;;;;;;;11.60;4.40;;;;;;;8.22;100.00;99398.56;219337;1264;139608;-92
2024/02/06 10:18:53;;;;;;;10.90;4.00;;;;;;;8.26;100.00;99395.60;219673;1263;139491;-90
2024/02/06 10:24:00;;;;;;;13.70;4.30;;;;;;;8.31;100.00;99387.31;218940;1268;316665;-92
2024/02/06 10:29:09;;;;;;;8.80;3.50;;;;;;;8.34;100.00;99386.23;220092;1267;97929;-91
2024/02/06 10:34:14;;;;;;;11.60;3.90;;;;;;;8.39;100.00;99381.95;221470;1268;137842;-91
2024/02/06 10:39:15;;;;;;;15.30;5.30;;;;;;;8.45;100.00;99371.08;220109;1267;138579;-91
2024/02/06 10:44:15;;;;;;;10.60;2.90;;;;;;;8.52;100.00;99367.64;219130;1269;139730;-90
2024/02/06 10:49:16;;;;;;;11.00;3.40;;;;;;;8.57;100.00;99370.00;219822;1267;139233;-88
2024/02/06 10:54:20;;;;;;;10.60;3.30;;;;;;;8.62;100.00;99364.21;219332;1269;140083;-89
2024/02/06 10:59:31;;;;;;;8.30;3.30;;;;;;;8.66;100.00;99363.82;219691;1269;139632;-89
2024/02/06 11:04:34;;;;;;;10.90;3.80;;;;;;;8.69;100.00;99356.30;219498;1268;139759;-91
2024/02/06 11:09:38;;;;;;;7.90;3.30;;;;;;;8.73;100.00;99349.81;220033;1268;139275;-90
2024/02/06 11:14:42;;;;;;;11.40;3.10;;;;;;;8.76;100.00;99343.39;219549;1268;139788;-90
2024/02/06 11:19:50;;;;;;;11.20;3.70;;;;;;;8.79;100.00;99333.13;220095;1269;138966;-91
2024/02/06 11:24:53;;;;;;;12.00;3.90;;;;;;;8.84;100.00;99331.48;219688;1268;139671;-93
2024/02/06 11:29:54;;;;;;;10.40;3.10;;;;;;;8.88;100.00;99330.23;219663;1266;140031;-90
2024/02/06 11:34:57;;;;;;;6.10;2.80;;;;;;;8.92;100.00;99324.03;221811;1268;139955;-89
2024/02/06 11:40:04;;;;;;;10.60;3.30;;;;;;;8.96;100.00;99324.34;219800;1268;139339;-91
2024/02/06 11:45:10;;;;;;;7.20;2.90;;;;;;;8.98;100.00;99313.60;220351;1268;138695;-91
2024/02/06 11:50:12;;;;;;;8.40;3.30;;;;;;;9.00;100.00;99315.17;220020;1269;139797;-91
2024/02/06 11:55:13;;;;;;;13.10;3.70;;;;;;;9.01;100.00;99302.00;220057;1264;139023;-89
2024/02/06 12:00:14;;;;;;;9.80;3.40;;;;;;;9.03;100.00;99302.61;219897;1267;140134;-89
2024/02/06 12:05:15;;;;;;;12.30;3.20;;;;;;;9.05;100.00;99300.10;220359;1264;138556;-88
2024/02/06 12:10:26;;;;;;;11.30;3.30;;;;;;;9.07;100.00;99296.42;219720;1268;139701;-92
2024/02/06 12:15:30;;;;;;;8.00;3.10;;;;;;;9.10;100.00;99295.79;220241;1269;139423;-93
2024/02/06 12:20:31;;;;;;;7.60;2.90;;;;;;;9.14;100.00;99284.73;219617;1264;139946;-90
2024/02/06 12:25:32;;;;;;;8.10;3.10;;;;;;;9.16;100.00;99286.60;219981;1267;139664;-90
2024/02/06 12:30:34;;;;;;;10.30;4.60;;;;;;;9.20;100.00;99276.33;219575;1267;140458;-89
2024/02/06 12:35:37;;;;;;;12.10;3.10;;;;;;;9.23;100.00;99274.52;221668;1264;138285;-91
2024/02/06 12:40:38;;;;;;;10.10;3.40;;;;;;;9.27;100.00;99272.46;219613;1263;140229;-92
2024/02/06 12:45:40;;;;;;;10.80;3.70;;;;;;;9.31;100.00;99265.00;220053;1267;138925;-91
2024/02/06 12:50:41;;;;;;;10.90;3.40;;;;;;;9.35;100.00;99260.44;219770;1267;141039;-93
2024/02/06 12:55:41;;;;;;;9.50;2.50;;;;;;;9.40;100.00;99255.02;220285;1267;139176;-93
2024/02/06 13:00:42;;;;;;;9.10;2.20;;;;;;;9.44;100.00;99250.14;219748;1267;140273;-91
2024/02/06 13:05:44;;;;;;;7.40;2.60;;;;;;;9.46;100.00;99246.45;220278;1264;139037;-93
2024/02/06 13:10:44;;;;;;;6.80;2.40;;;;;;;9.51;100.00;99243.14;220262;1264;140544;-90
2024/02/06 13:15:45;;;;;;;7.50;2.40;;;;;;;9.55;100.00;99247.04;220183;1267;138552;-91
2024/02/06 13:20:55;;;;;;;7.20;2.80;;;;;;;9.59;100.00;99241.46;219669;1267;140354;-93
2024/02/06 13:25:56;;;;;;;8.40;3.00;;;;;;;9.61;100.00;99237.54;220509;1263;139014;-95
2024/02/06 13:30:57;;;;;;;7.80;2.30;;;;;;;9.63;100.00;99236.48;219846;1264;139880;-89
2024/02/06 13:35:57;;;;;;;7.10;2.40;;;;;;;9.64;100.00;99229.66;220814;1264;139120;-92
2024/02/06 13:40:58;;;;;;;7.90;2.80;;;;;;;9.65;100.00;99223.77;221094;1267;138824;-93
2024/02/06 13:45:58;;;;;;;10.80;2.40;;;;;;;9.66;100.00;99218.34;220373;1264;138429;-93
2024/02/06 13:50:59;;;;;;;9.70;2.20;;;;;;;9.68;100.00;99207.03;219674;1264;140021;-90
2024/02/06 13:55:59;;;;;;;9.40;2.20;;;;;;;9.69;100.00;99206.41;220586;1267;138572;-93
2024/02/06 14:01:00;;;;;;;11.20;2.50;;;;;;;9.68;100.00;99197.85;219931;1264;139483;-90
2024/02/06 14:06:00;;;;;;;11.50;2.80;;;;;;;9.69;100.00;99193.06;220329;1264;138823;-92
2024/02/06 14:11:01;;;;;;;9.70;2.20;;;;;;;9.68;100.00;99183.80;220105;1264;140978;-94
2024/02/06 14:16:01;;;;;;;7.00;2.20;;;;;;;9.68;100.00;99170.54;220557;1267;139172;-93
2024/02/06 14:21:02;;;;;;;8.00;2.80;;;;;;;9.68;100.00;99167.64;220105;1267;139674;-92
2024/02/06 14:26:04;;;;;;;11.50;2.10;;;;;;;9.68;100.00;99159.47;220442;1264;139604;-92
2024/02/06 14:31:04;;;;;;;4.60;1.90;;;;;;;9.68;100.00;99155.47;219865;1264;139993;-92
2024/02/06 14:36:05;;;;;;;5.00;1.90;;;;;;;9.68;100.00;99145.82;220325;1264;138471;-93
2024/02/06 14:41:06;;;;;;;5.50;2.30;;;;;;;9.68;100.00;99140.71;221634;1267;139790;-93
2024/02/06 14:46:06;;;;;;;14.20;4.70;;;;;;;9.68;100.00;99140.95;220433;1264;138662;-91
2024/02/06 14:51:11;;;;;;;6.30;2.40;;;;;;;9.69;100.00;99134.66;219781;1264;140205;-93
2024/02/06 14:56:11;;;;;;;6.90;2.50;;;;;;;9.70;100.00;99135.69;220489;1266;138517;-94
2024/02/06 15:01:12;;;;;;;10.80;2.60;;;;;;;9.70;100.00;99125.88;219641;1264;139986;-94
2024/02/06 15:06:12;;;;;;;7.30;2.40;;;;;;;9.72;100.00;99125.23;220367;1264;139344;-92
2024/02/06 15:11:13;;;;;;;7.60;2.60;;;;;;;9.73;100.00;99127.73;220103;1264;139791;-93
2024/02/06 15:16:13;;;;;;;8.60;2.50;;;;;;;9.76;100.00;99121.35;220256;1264;138390;-91
2024/02/06 15:21:14;;;;;;;7.20;2.70;;;;;;;9.78;100.00;99112.40;219770;1264;139368;-94
2024/02/06 15:26:28;;;;;;;10.70;2.90;;;;;;;9.78;100.00;99109.48;220397;1264;138945;-92
2024/02/06 15:31:28;;;;;;;6.80;2.30;;;;;;;9.81;100.00;99106.89;219417;1263;139474;-92
2024/02/06 15:36:29;;;;;;;5.90;2.60;;;;;;;9.81;100.00;99099.65;220374;1263;138472;-91
2024/02/06 15:41:29;;;;;;;7.70;2.40;;;;;;;9.85;100.00;99094.60;221288;1264;138504;-92
2024/02/06 15:46:30;;;;;;;7.40;2.90;;;;;;;9.86;100.00;99088.64;220573;1263;97936;-89
2024/02/06 15:51:33;;;;;;;10.20;2.60;;;;;;;9.87;100.00;99088.40;220630;1264;139762;-92
2024/02/06 15:56:34;;;;;;;9.80;3.90;;;;;;;9.87;100.00;99083.98;220336;1263;138855;-93
2024/02/06 16:01:37;;;;;;;9.00;3.00;;;;;;;9.88;100.00;99089.00;219935;1264;139503;-91
2024/02/06 16:06:38;;;;;;;9.20;2.70;;;;;;;9.87;100.00;99072.77;220294;1267;138928;-93
2024/02/06 16:11:58;;;;;;;7.10;2.70;;;;;;;9.88;100.00;99061.92;219954;1267;139839;-88
2024/02/06 16:17:01;;;;;;;7.90;2.80;;;;;;;9.89;100.00;99054.69;220786;1264;96585;-93
2024/02/06 16:22:02;;;;;;;11.10;2.70;;;;;;;9.87;100.00;99044.35;220443;1264;139337;-90
2024/02/06 16:27:03;;;;;;;12.30;5.00;;;;;;;9.89;100.00;99042.05;220961;1264;138693;-88
2024/02/06 16:32:04;;;;;;;4.40;2.20;;;;;;;9.90;100.00;99037.17;220551;1264;140055;-93
2024/02/06 16:37:05;;;;;;;7.10;2.40;;;;;;;9.90;100.00;99038.04;221483;1264;140254;-92
2024/02/06 16:42:05;;;;;;;6.50;2.50;;;;;;;9.91;100.00;99026.80;221804;1264;139602;-93
2024/02/06 16:47:07;;;;;;;9.80;3.10;;;;;;;9.91;100.00;99023.73;221350;1263;97930;-91
2024/02/06 16:52:08;;;;;;;11.00;3.10;;;;;;;9.91;100.00;99025.94;220415;1264;139644;-92
2024/02/06 16:57:08;;;;;;;10.50;3.40;;;;;;;9.93;100.00;99014.21;221019;1267;139422;-92
2024/02/06 17:02:09;;;;;;;9.80;3.70;;;;;;;9.94;100.00;99019.23;220440;1267;140538;-91
2024/02/06 17:07:10;;;;;;;13.90;4.70;;;;;;;9.94;100.00;99011.48;220735;1264;139966;-88
2024/02/06 17:12:10;;;;;;;9.90;3.70;;;;;;;9.94;100.00;99011.30;220510;1267;139677;-89
2024/02/06 17:17:10;;;;;;;10.30;2.90;;;;;;;9.94;100.00;99003.21;220703;1264;98262;-91
2024/02/06 17:22:13;;;;;;;8.50;3.20;;;;;;;9.94;100.00;98993.33;220262;1264;139828;-92
2024/02/06 17:27:14;;;;;;;7.00;3.00;;;;;;;9.94;100.00;98989.01;220634;1266;138592;-92
2024/02/06 17:32:14;;;;;;;8.70;3.20;;;;;;;9.95;100.00;98980.29;220276;1267;140104;-93
2024/02/06 17:37:15;;;;;;;7.80;2.50;;;;;;;9.95;100.00;98971.96;220501;1267;138617;-90
2024/02/06 17:42:15;;;;;;;10.20;3.30;;;;;;;9.96;100.00;98971.88;221011;1264;139504;-92
2024/02/06 17:47:18;;;;;;;11.20;3.10;;;;;;;9.95;100.00;98961.05;220521;1264;138903;-93
2024/02/06 17:52:20;;;;;;;8.00;3.20;;;;;;;9.95;100.00;98957.44;220101;1264;139850;-93
2024/02/06 17:57:20;;;;;;;13.10;4.10;;;;;;;9.95;100.00;98947.07;220931;1264;138861;-92
2024/02/06 18:02:21;;;;;;;11.10;3.80;;;;;;;9.95;100.00;98940.08;220308;1264;140148;-90
2024/02/06 18:07:22;;;;;;;7.90;2.80;;;;;;;9.96;100.00;98936.30;221264;1267;138784;-92
2024/02/06 18:12:23;;;;;;;8.10;3.10;;;;;;;9.98;100.00;98931.35;220486;1264;140027;-91
2024/02/06 18:17:23;;;;;;;7.20;2.90;;;;;;;9.99;100.00;98924.51;220887;1265;139335;-93
2024/02/06 18:22:25;;;;;;;6.70;3.00;;;;;;;10.00;100.00;98917.58;220178;1264;140383;-93
2024/02/06 18:27:26;;;;;;;12.30;3.40;;;;;;;10.01;100.00;98906.09;220881;1264;139295;-90
2024/02/06 18:32:27;;;;;;;9.50;2.90;;;;;;;10.02;100.00;98908.84;220306;1264;140361;-92
2024/02/06 18:37:27;;;;;;;10.10;3.40;;;;;;;10.03;100.00;98907.50;221429;1264;140732;-92
2024/02/06 18:42:28;;;;;;;9.30;3.20;;;;;;;10.04;100.00;98910.25;221566;1265;140625;-91
2024/02/06 18:47:28;;;;;;;7.50;2.60;;;;;;;10.06;100.00;98904.67;221184;1267;138982;-92
2024/02/06 18:52:29;;;;;;;7.60;3.00;;;;;;;10.06;100.00;98899.32;220669;1264;139812;-94
2024/02/06 18:57:30;;;;;;;6.20;2.60;;;;;;;10.07;100.00;98893.17;220890;1267;139096;-94
2024/02/06 19:02:32;;;;;;;9.50;2.90;;;;;;;10.10;100.00;98882.46;220599;1264;141373;-94
2024/02/06 19:07:32;;;;;;;9.80;3.30;;;;;;;10.11;100.00;98884.96;220768;1264;139349;-95
2024/02/06 19:12:33;;;;;;;10.70;2.80;;;;;;;10.15;100.00;98875.66;220584;1264;140196;-92
2024/02/06 19:17:33;;;;;;;7.90;3.20;;;;;;;10.13;100.00;98873.41;221071;1265;140508;-91
2024/02/06 19:22:34;;;;;;;7.20;2.90;;;;;;;10.07;100.00;98873.80;220505;1264;141051;-91
2024/02/06 19:27:34;;;;;;;7.50;2.90;;;;;;;9.98;100.00;98867.11;220754;1264;138783;-94
2024/02/06 19:32:35;;;;;;;6.20;3.00;;;;;;;9.93;100.00;98860.57;220491;1265;140138;-92
2024/02/06 19:37:36;;;;;;;9.20;3.30;;;;;;;9.86;100.00;98856.18;220789;1264;138840;-92
2024/02/06 19:42:37;;;;;;;12.90;3.70;;;;;;;9.79;100.00;98848.25;221226;1264;139858;-87
2024/02/06 19:47:38;;;;;;;8.20;3.20;;;;;;;9.72;100.00;98845.51;220671;1264;138652;-87
2024/02/06 19:52:38;;;;;;;8.80;3.10;;;;;;;9.65;100.00;98845.90;219746;1266;144164;-89
2024/02/06 19:57:41;;;;;;;9.60;3.90;;;;;;;9.59;100.00;98845.88;220216;1264;138872;-88
2024/02/06 20:02:42;;;;;;;13.40;4.20;;;;;;;9.53;100.00;98838.33;219753;1267;139723;-89
2024/02/06 20:07:43;;;;;;;8.50;3.70;;;;;;;9.46;100.00;98833.39;220287;1264;138674;-87
2024/02/06 20:12:44;;;;;;;11.40;4.50;;;;;;;9.40;100.00;98834.15;219776;1264;140007;-85
2024/02/06 20:17:44;;;;;;;11.50;4.30;;;;;;;9.35;100.00;98830.52;220136;1264;138578;-88
2024/02/06 20:22:45;;;;;;;10.20;4.00;;;;;;;9.31;100.00;98823.17;219633;1264;140740;-89
2024/02/06 20:27:46;;;;;;;12.00;4.40;;;;;;;9.27;100.00;98815.84;220076;1267;139266;-90
2024/02/06 20:32:46;;;;;;;10.20;4.40;;;;;;;9.27;100.00;98806.51;219538;1267;140002;-86
2024/02/06 20:37:47;;;;;;;10.10;3.90;;;;;;;9.30;100.00;98804.83;219944;1266;138812;-87
2024/02/06 20:42:47;;;;;;;11.80;4.70;;;;;;;9.32;100.00;98793.52;220085;1263;140818;-88
2024/02/06 20:47:48;;;;;;;10.20;4.00;;;;;;;9.33;100.00;98787.23;220293;1265;139312;-86
2024/02/06 20:52:48;;;;;;;14.60;4.70;;;;;;;9.38;100.00;98782.63;219686;1264;139855;-89
2024/02/06 20:57:49;;;;;;;15.30;5.30;;;;;;;9.41;100.00;98772.55;220315;1264;138696;-90
2024/02/06 21:02:49;;;;;;;9.50;4.40;;;;;;;9.46;100.00;98764.73;219652;1264;139998;-92
2024/02/06 21:07:50;;;;;;;8.80;3.60;;;;;;;9.55;100.00;98762.61;220229;1264;138557;-89
2024/02/06 21:12:50;;;;;;;16.00;4.10;;;;;;;9.58;100.00;98756.05;219873;1265;139480;-90
2024/02/06 21:17:51;;;;;;;10.70;4.10;;;;;;;9.61;100.00;98752.56;220244;1267;139061;-88
2024/02/06 21:22:51;;;;;;;11.00;4.30;;;;;;;9.65;100.00;98750.55;219903;1267;140079;-89
2024/02/06 21:27:52;;;;;;;8.90;3.90;;;;;;;9.68;100.00;98749.73;220049;1267;138942;-92
2024/02/06 21:32:53;;;;;;;10.10;4.00;;;;;;;9.72;100.00;98740.81;219378;1267;139906;-91
2024/02/06 21:37:55;;;;;;;11.00;4.20;;;;;;;9.74;100.00;98730.89;220156;1264;139369;-91
2024/02/06 21:42:56;;;;;;;10.80;3.80;;;;;;;9.77;100.00;98726.37;219736;1267;140545;-88
2024/02/06 21:47:56;;;;;;;8.70;3.30;;;;;;;9.79;100.00;98720.39;220220;1264;138737;-91
2024/02/06 21:52:57;;;;;;;10.20;3.50;;;;;;;9.80;100.00;98709.31;219689;1267;139868;-88
2024/02/06 21:57:58;;;;;;;10.70;3.60;;;;;;;9.79;100.00;98707.44;220363;1266;138727;-90
2024/02/06 22:02:58;;;;;;;9.20;3.70;;;;;;;9.81;100.00;98701.30;219677;1265;140136;-87
2024/02/06 22:07:58;;;;;;;13.70;4.40;;;;;;;9.80;100.00;98699.25;220146;1265;139249;-92
2024/02/06 22:12:59;;;;;;;9.00;3.90;;;;;;;9.80;100.00;98700.05;219466;1267;139946;-91
2024/02/06 22:17:59;;;;;;;9.30;3.20;;;;;;;9.81;100.00;98695.33;220272;1264;138459;-90
2024/02/06 22:23:00;;;;;;;8.30;3.20;;;;;;;9.81;100.00;98687.65;219500;1264;295414;-90
2024/02/06 22:28:01;;;;;;;8.10;2.90;;;;;;;9.81;100.00;98679.07;220246;1264;139179;-91
2024/02/06 22:33:01;;;;;;;7.40;3.10;;;;;;;9.82;100.00;98675.06;220132;1264;139499;-89
2024/02/06 22:38:02;;;;;;;11.40;3.20;;;;;;;9.83;100.00;98668.84;220480;1264;138612;-89
2024/02/06 22:43:03;;;;;;;12.20;3.70;;;;;;;9.86;100.00;98656.16;220246;1264;139606;-86
2024/02/06 22:48:03;;;;;;;7.80;3.30;;;;;;;9.87;100.00;98650.81;220443;1267;138852;-89
2024/02/06 22:53:04;;;;;;;10.80;3.40;;;;;;;9.87;100.00;98650.42;220086;1264;139735;-88